createdAt,value
2023-03-21T00:01:53.906Z,9.24
2023-03-21T00:04:22.559Z,9.21
2023-03-21T00:06:50.757Z,9.18
2023-03-21T00:09:20.466Z,9.15
2023-03-21T00:11:48.572Z,9.10
2023-03-21T00:14:18.953Z,9.08
2023-03-21T00:16:50.624Z,9.04
2023-03-21T00:19:20.925Z,9.03
2023-03-21T00:22:06.555Z,8.99
2023-03-21T00:24:36.607Z,9.01
2023-03-21T00:29:56.331Z,8.98
2023-03-21T00:32:24.390Z,8.92
2023-03-21T00:35:23.280Z,8.80
2023-03-21T00:37:42.138Z,8.71
2023-03-21T00:40:22.964Z,8.65
2023-03-21T00:42:53.947Z,8.57
2023-03-21T00:45:22.513Z,8.51
2023-03-21T00:47:50.717Z,8.48
2023-03-21T00:50:20.523Z,8.44
2023-03-21T00:52:48.569Z,8.43
2023-03-21T00:55:19.762Z,8.46
2023-03-21T00:57:56.203Z,8.45
2023-03-21T01:00:29.610Z,8.47
2023-03-21T01:03:11.226Z,8.49
2023-03-21T01:06:07.696Z,8.55
2023-03-21T01:08:51.247Z,8.64
2023-03-21T01:11:23.158Z,8.71
2023-03-21T01:13:56.053Z,8.76
2023-03-21T01:16:27.832Z,8.82
2023-03-21T01:18:58.116Z,8.88
2023-03-21T01:21:27.877Z,8.95
2023-03-21T01:23:56.207Z,9.03
2023-03-21T01:26:24.668Z,9.11
2023-03-21T01:28:52.805Z,9.16
2023-03-21T01:31:22.760Z,9.18
2023-03-21T01:33:50.853Z,9.17
2023-03-21T01:36:23.516Z,9.16
2023-03-21T01:38:55.029Z,9.12
2023-03-21T01:41:42.588Z,9.08
2023-03-21T01:44:16.972Z,9.02
2023-03-21T01:47:03.580Z,9.00
2023-03-21T01:49:41.731Z,8.95
2023-03-21T01:52:23.625Z,8.93
2023-03-21T01:54:57.239Z,8.94
2023-03-21T01:57:43.570Z,8.95
2023-03-21T02:00:17.012Z,8.98
2023-03-21T02:02:52.682Z,8.99
2023-03-21T02:05:25.630Z,9.01
2023-03-21T02:07:54.288Z,9.03
2023-03-21T02:10:23.778Z,9.03
2023-03-21T02:12:55.067Z,9.03
2023-03-21T02:15:26.581Z,9.04
2023-03-21T02:18:00.175Z,8.99
2023-03-21T02:21:08.767Z,8.90
2023-03-21T02:23:58.104Z,8.81
2023-03-21T02:27:03.401Z,8.79
2023-03-21T02:30:05.741Z,8.81
2023-03-21T02:32:49.648Z,8.74
2023-03-21T02:35:41.467Z,8.62
2023-03-21T02:38:19.544Z,8.48
2023-03-21T02:40:53.715Z,8.39
2023-03-21T02:43:35.398Z,8.31
2023-03-21T02:46:08.536Z,8.30
2023-03-21T02:48:50.220Z,8.32
2023-03-21T02:51:23.207Z,8.38
2023-03-21T02:54:23.677Z,8.42
2023-03-21T02:56:49.203Z,8.48
2023-03-21T02:59:20.150Z,8.54
2023-03-21T03:01:48.592Z,8.59
2023-03-21T03:04:21.322Z,8.61
2023-03-21T03:07:03.848Z,8.60
2023-03-21T03:09:49.120Z,8.62
2023-03-21T03:12:28.906Z,8.63
2023-03-21T03:15:08.717Z,8.62
2023-03-21T03:17:48.765Z,8.63
2023-03-21T03:20:25.790Z,8.62
2023-03-21T03:23:01.898Z,8.55
2023-03-21T03:25:42.791Z,8.49
2023-03-21T03:28:14.582Z,8.40
2023-03-21T03:30:57.182Z,8.32
2023-03-21T03:33:35.046Z,8.26
2023-03-21T03:36:06.602Z,8.30
2023-03-21T03:38:36.974Z,8.29
2023-03-21T03:41:11.853Z,8.24
2023-03-21T03:43:44.902Z,8.26
2023-03-21T03:46:19.240Z,8.32
2023-03-21T03:48:51.617Z,8.31
2023-03-21T03:51:26.035Z,8.32
2023-03-21T03:53:58.370Z,8.41
2023-03-21T03:56:28.635Z,8.49
2023-03-21T03:58:58.244Z,8.59
2023-03-21T04:01:26.756Z,8.64
2023-03-21T04:04:06.920Z,8.68
2023-03-21T04:06:41.536Z,8.71
2023-03-21T04:09:20.929Z,8.72
2023-03-21T04:11:52.876Z,8.74
2023-03-21T04:14:21.041Z,8.77
2023-03-21T04:16:49.327Z,8.76
2023-03-21T04:19:18.401Z,8.78
2023-03-21T04:21:47.595Z,8.80
2023-03-21T04:24:18.074Z,8.81
2023-03-21T04:26:46.429Z,8.83
2023-03-21T04:29:15.878Z,8.83
2023-03-21T04:31:44.111Z,8.80
2023-03-21T04:34:12.636Z,8.74
2023-03-21T04:36:44.243Z,8.68
2023-03-21T04:39:13.323Z,8.62
2023-03-21T04:41:42.026Z,8.54
2023-03-21T04:44:10.538Z,8.46
2023-03-21T04:46:40.602Z,8.45
2023-03-21T04:49:09.090Z,8.47
2023-03-21T04:51:38.012Z,8.51
2023-03-21T04:56:36.560Z,8.60
2023-03-21T04:59:08.358Z,8.66
2023-03-21T05:01:36.414Z,8.70
2023-03-21T05:04:06.456Z,8.72
2023-03-21T05:06:35.028Z,8.78
2023-03-21T05:09:05.521Z,8.80
2023-03-21T05:11:36.048Z,8.83
2023-03-21T05:14:04.560Z,8.84
2023-03-21T05:16:34.775Z,8.84
2023-03-21T05:19:05.083Z,8.85
2023-03-21T05:21:41.427Z,8.84
2023-03-21T05:24:12.344Z,8.81
2023-03-21T05:26:41.903Z,8.80
2023-03-21T05:29:10.771Z,8.81
2023-03-21T05:31:40.086Z,8.84
2023-03-21T05:34:10.220Z,8.85
2023-03-21T05:36:41.846Z,8.87
2023-03-21T05:39:10.226Z,8.92
2023-03-21T05:41:38.427Z,8.91
2023-03-21T05:44:06.549Z,8.92
2023-03-21T05:46:36.254Z,8.95
2023-03-21T05:49:04.910Z,8.95
2023-03-21T05:51:32.968Z,8.96
2023-03-21T05:54:02.585Z,8.97
2023-03-21T05:56:30.654Z,8.99
2023-03-21T05:58:58.720Z,8.99
2023-03-21T06:01:26.762Z,9.01
2023-03-21T06:03:54.948Z,9.03
2023-03-21T06:06:23.340Z,9.06
2023-03-21T06:08:51.397Z,9.10
2023-03-21T06:11:27.198Z,9.15
2023-03-21T06:13:55.264Z,9.16
2023-03-21T06:16:23.543Z,9.23
2023-03-21T06:18:51.639Z,9.28
2023-03-21T06:21:21.840Z,9.31
2023-03-21T06:23:51.767Z,9.37
2023-03-21T06:26:23.096Z,9.40
2023-03-21T06:28:54.603Z,9.42
2023-03-21T06:31:22.853Z,9.43
2023-03-21T06:33:51.839Z,9.46
2023-03-21T06:36:21.076Z,9.51
2023-03-21T06:38:49.442Z,9.52
2023-03-21T06:41:17.786Z,9.51
2023-03-21T06:43:48.859Z,9.47
2023-03-21T06:46:18.252Z,9.34
2023-03-21T06:48:46.430Z,9.22
2023-03-21T06:51:15.589Z,9.19
2023-03-21T06:53:44.704Z,9.10
2023-03-21T06:56:15.501Z,9.03
2023-03-21T06:58:43.791Z,9.00
2023-03-21T07:01:12.078Z,9.01
2023-03-21T07:03:43.253Z,9.11
2023-03-21T07:06:13.662Z,9.24
2023-03-21T07:08:42.446Z,9.33
2023-03-21T07:11:10.991Z,9.38
2023-03-21T07:13:38.971Z,9.33
2023-03-21T07:16:08.815Z,9.26
2023-03-21T07:18:37.118Z,9.23
2023-03-21T07:21:07.493Z,9.21
2023-03-21T07:23:35.821Z,9.20
2023-03-21T07:26:04.204Z,9.22
2023-03-21T07:28:32.459Z,9.24
2023-03-21T07:31:02.666Z,9.43
2023-03-21T07:33:31.653Z,9.60
2023-03-21T07:36:00.113Z,9.66
2023-03-21T07:38:31.067Z,9.72
2023-03-21T07:41:01.135Z,9.84
2023-03-21T07:43:29.218Z,10.00
2023-03-21T07:46:01.116Z,10.12
2023-03-21T07:48:30.351Z,10.13
2023-03-21T07:50:58.562Z,9.97
2023-03-21T07:53:26.571Z,9.87
2023-03-21T07:55:57.068Z,9.91
2023-03-21T07:58:25.252Z,10.06
2023-03-21T08:00:53.653Z,10.25
2023-03-21T08:03:24.182Z,10.41
2023-03-21T08:05:52.390Z,10.47
2023-03-21T08:08:20.630Z,10.53
2023-03-21T08:10:48.615Z,10.55
2023-03-21T08:13:18.071Z,10.54
2023-03-21T08:15:46.402Z,10.55
2023-03-21T08:18:15.924Z,10.42
2023-03-21T08:20:46.383Z,10.31
2023-03-21T08:23:14.962Z,10.32
2023-03-21T08:25:43.397Z,10.43
2023-03-21T08:28:11.449Z,10.50
2023-03-21T08:30:40.998Z,10.65
2023-03-21T08:33:09.153Z,10.91
2023-03-21T08:35:40.851Z,10.92
2023-03-21T08:38:10.100Z,11.08
2023-03-21T08:40:38.176Z,11.24
2023-03-21T08:43:08.573Z,11.18
2023-03-21T08:45:37.440Z,11.20
2023-03-21T08:48:07.675Z,11.17
2023-03-21T08:50:36.109Z,11.12
2023-03-21T08:53:04.401Z,11.13
2023-03-21T08:55:33.535Z,11.14
2023-03-21T08:58:02.059Z,11.20
2023-03-21T09:00:30.715Z,11.38
2023-03-21T09:03:01.602Z,11.38
2023-03-21T09:05:31.390Z,11.14
2023-03-21T09:08:03.573Z,10.87
2023-03-21T09:10:31.642Z,10.93
2023-03-21T09:13:03.083Z,11.03
2023-03-21T09:15:35.775Z,10.98
2023-03-21T09:18:13.546Z,11.15
2023-03-21T09:20:44.043Z,11.09
2023-03-21T09:23:13.297Z,10.94
2023-03-21T09:25:41.464Z,10.71
2023-03-21T09:28:13.307Z,10.76
2023-03-21T09:30:41.894Z,11.19
2023-03-21T09:33:13.420Z,11.48
2023-03-21T09:35:45.317Z,11.84
2023-03-21T09:38:13.743Z,12.02
2023-03-21T09:40:57.604Z,12.21
2023-03-21T09:43:45.249Z,12.39
2023-03-21T09:46:31.868Z,12.63
2023-03-21T09:49:04.829Z,12.76
2023-03-21T09:51:38.253Z,12.87
2023-03-21T09:54:16.264Z,12.83
2023-03-21T09:56:46.118Z,12.88
2023-03-21T09:59:23.098Z,12.96
2023-03-21T10:01:51.836Z,13.00
2023-03-21T10:04:22.460Z,13.03
2023-03-21T10:07:01.449Z,13.27
2023-03-21T10:09:32.604Z,13.33
2023-03-21T10:12:06.483Z,13.36
2023-03-21T10:14:37.243Z,13.43
2023-03-21T10:17:17.200Z,13.63
2023-03-21T10:19:46.643Z,13.76
2023-03-21T10:22:16.129Z,13.96
2023-03-21T10:24:48.930Z,13.72
2023-03-21T10:27:17.308Z,13.73
2023-03-21T10:29:47.260Z,13.75
2023-03-21T10:32:18.825Z,14.03
2023-03-21T10:34:52.414Z,14.31
2023-03-21T10:37:22.616Z,14.44
2023-03-21T10:39:53.323Z,14.68
2023-03-21T10:42:24.050Z,14.72
2023-03-21T10:44:54.118Z,14.59
2023-03-21T10:47:23.915Z,14.49
2023-03-21T10:50:09.251Z,14.23
2023-03-21T10:52:44.437Z,14.04
2023-03-21T10:55:24.479Z,14.01
2023-03-21T10:57:58.997Z,14.20
2023-03-21T11:00:31.691Z,14.76
2023-03-21T11:03:00.694Z,14.71
2023-03-21T11:05:37.578Z,14.64
2023-03-21T11:08:13.607Z,14.45
2023-03-21T11:11:01.207Z,14.64
2023-03-21T11:13:36.768Z,14.43
2023-03-21T11:16:10.996Z,15.00
2023-03-21T11:18:43.863Z,15.11
2023-03-21T11:21:14.498Z,14.78
2023-03-21T11:23:48.160Z,15.04
2023-03-21T11:26:24.196Z,15.09
2023-03-21T11:28:52.826Z,15.07
2023-03-21T11:31:21.637Z,15.15
2023-03-21T11:33:53.703Z,15.29
2023-03-21T11:36:38.146Z,15.64
2023-03-21T11:39:32.092Z,15.89
2023-03-21T11:42:00.716Z,15.56
2023-03-21T11:44:36.612Z,15.59
2023-03-21T11:47:04.705Z,15.59
2023-03-21T11:49:33.093Z,15.74
2023-03-21T11:52:21.114Z,15.77
2023-03-21T11:55:11.992Z,15.60
2023-03-21T11:57:48.716Z,15.53
2023-03-21T12:00:23.808Z,15.50
2023-03-21T12:03:14.172Z,15.30
2023-03-21T12:05:52.108Z,15.16
2023-03-21T12:08:32.681Z,15.02
2023-03-21T12:11:08.226Z,14.87
2023-03-21T12:13:48.492Z,15.11
2023-03-21T12:16:46.306Z,15.33
2023-03-21T12:19:34.633Z,15.43
2023-03-21T12:22:11.533Z,15.66
2023-03-21T12:24:49.510Z,15.65
2023-03-21T12:27:28.756Z,15.61
2023-03-21T12:30:11.393Z,15.57
2023-03-21T12:32:54.080Z,15.60
2023-03-21T12:35:33.818Z,15.71
2023-03-21T12:38:16.861Z,15.79
2023-03-21T12:41:10.035Z,15.85
2023-03-21T12:43:48.473Z,15.87
2023-03-21T12:46:23.825Z,15.47
2023-03-21T12:48:55.238Z,15.01
2023-03-21T12:51:29.801Z,14.94
2023-03-21T12:54:03.564Z,14.99
2023-03-21T12:56:35.431Z,15.03
2023-03-21T12:59:15.590Z,15.15
2023-03-21T13:01:44.197Z,15.29
2023-03-21T13:04:34.450Z,15.43
2023-03-21T13:07:06.627Z,15.50
2023-03-21T13:09:38.493Z,15.60
2023-03-21T13:12:21.011Z,15.70
2023-03-21T13:15:21.834Z,15.67
2023-03-21T13:18:01.156Z,15.51
2023-03-21T13:20:37.576Z,15.39
2023-03-21T13:23:06.641Z,15.39
2023-03-21T13:25:40.661Z,15.18
2023-03-21T13:28:17.877Z,15.05
2023-03-21T13:30:48.901Z,15.28
2023-03-21T13:33:24.099Z,15.51
2023-03-21T13:36:01.053Z,15.68
2023-03-21T13:38:30.940Z,15.74
2023-03-21T13:41:00.890Z,15.79
2023-03-21T13:43:41.705Z,15.63
2023-03-21T13:46:14.123Z,15.53
2023-03-21T13:48:57.872Z,15.40
2023-03-21T13:51:47.540Z,15.56
2023-03-21T13:54:22.050Z,15.80
2023-03-21T13:56:52.349Z,15.95
2023-03-21T13:59:36.231Z,16.05
2023-03-21T14:02:23.082Z,16.12
2023-03-21T14:05:07.050Z,15.87
2023-03-21T14:07:41.037Z,15.53
2023-03-21T14:10:23.391Z,15.30
2023-03-21T14:12:53.200Z,15.23
2023-03-21T14:15:24.528Z,15.18
2023-03-21T14:17:56.196Z,15.24
2023-03-21T14:20:29.713Z,15.35
2023-03-21T14:22:59.537Z,15.29
2023-03-21T14:25:40.946Z,15.23
2023-03-21T14:28:18.076Z,15.05
2023-03-21T14:30:47.203Z,14.84
2023-03-21T14:33:19.945Z,14.63
2023-03-21T14:35:49.998Z,14.51
2023-03-21T14:38:23.328Z,14.36
2023-03-21T14:40:53.338Z,14.33
2023-03-21T14:43:23.032Z,14.32
2023-03-21T14:45:54.674Z,14.28
2023-03-21T14:48:32.171Z,14.26
2023-03-21T14:51:04.755Z,14.16
2023-03-21T14:53:37.279Z,14.07
2023-03-21T14:56:10.512Z,14.00
2023-03-21T14:58:41.421Z,13.93
2023-03-21T15:01:17.412Z,13.75
2023-03-21T15:03:48.805Z,13.42
2023-03-21T15:06:17.729Z,13.19
2023-03-21T15:08:56.116Z,12.97
2023-03-21T15:11:32.059Z,12.84
2023-03-21T15:14:02.861Z,12.75
2023-03-21T15:16:32.620Z,12.74
2023-03-21T15:19:16.206Z,12.67
2023-03-21T15:21:49.442Z,12.62
2023-03-21T15:24:23.856Z,12.49
2023-03-21T15:26:53.509Z,12.46
2023-03-21T15:29:23.276Z,12.40
2023-03-21T15:31:51.482Z,12.35
2023-03-21T15:34:24.597Z,12.29
2023-03-21T15:36:59.137Z,12.26
2023-03-21T15:39:36.891Z,12.20
2023-03-21T15:42:07.646Z,12.14
2023-03-21T15:44:36.603Z,12.17
2023-03-21T15:47:04.982Z,12.14
2023-03-21T15:49:35.828Z,12.09
2023-03-21T15:52:08.378Z,11.99
2023-03-21T15:54:42.494Z,11.95
2023-03-21T15:57:22.885Z,11.89
2023-03-21T15:59:52.405Z,11.84
2023-03-21T16:02:23.265Z,11.78
2023-03-21T16:05:01.203Z,11.68
2023-03-21T16:07:29.930Z,11.66
2023-03-21T16:10:05.791Z,11.63
2023-03-21T16:12:35.961Z,11.58
2023-03-21T16:15:13.460Z,11.54
2023-03-21T16:17:54.183Z,11.47
2023-03-21T16:20:27.700Z,11.40
2023-03-21T16:22:56.734Z,11.37
2023-03-21T16:25:29.996Z,11.31
2023-03-21T16:27:58.968Z,11.24
2023-03-21T16:30:27.538Z,11.19
2023-03-21T16:32:55.618Z,11.12
2023-03-21T16:35:29.308Z,11.04
2023-03-21T16:37:57.479Z,10.99
2023-03-21T16:40:29.002Z,10.96
2023-03-21T16:42:59.642Z,10.93
2023-03-21T16:45:30.589Z,10.85
2023-03-21T16:48:03.236Z,10.83
2023-03-21T16:50:37.101Z,10.81
2023-03-21T16:53:09.793Z,10.77
2023-03-21T16:55:38.954Z,10.75
2023-03-21T16:58:07.537Z,10.70
2023-03-21T17:00:38.876Z,10.70
2023-03-21T17:03:15.111Z,10.62
2023-03-21T17:05:44.857Z,10.60
2023-03-21T17:08:17.145Z,10.53
2023-03-21T17:10:45.419Z,10.47
2023-03-21T17:13:13.734Z,10.43
2023-03-21T17:15:42.270Z,10.44
2023-03-21T17:18:12.366Z,10.42
2023-03-21T17:20:41.861Z,10.44
2023-03-21T17:23:12.133Z,10.43
2023-03-21T17:25:40.251Z,10.40
2023-03-21T17:28:14.134Z,10.33
2023-03-21T17:30:45.767Z,10.31
2023-03-21T17:33:17.650Z,10.28
2023-03-21T17:35:45.760Z,10.26
2023-03-21T17:38:19.089Z,10.23
2023-03-21T17:40:50.548Z,10.19
2023-03-21T17:43:20.736Z,10.17
2023-03-21T17:45:48.544Z,10.14
2023-03-21T17:48:16.586Z,10.15
2023-03-21T17:50:44.661Z,10.14
2023-03-21T17:53:15.054Z,10.13
2023-03-21T17:55:43.145Z,10.13
2023-03-21T17:58:13.042Z,10.11
2023-03-21T18:00:41.337Z,10.08
2023-03-21T18:03:09.412Z,10.06
2023-03-21T18:05:37.646Z,10.04
2023-03-21T18:08:10.762Z,10.06
2023-03-21T18:10:42.878Z,10.04
2023-03-21T18:13:11.502Z,10.01
2023-03-21T18:15:44.783Z,10.01
2023-03-21T18:18:13.478Z,10.01
2023-03-21T18:20:58.440Z,10.01
2023-03-21T18:23:26.981Z,10.00
2023-03-21T18:25:58.485Z,10.00
2023-03-21T18:28:27.237Z,9.98
2023-03-21T18:31:15.924Z,9.99
2023-03-21T18:33:45.263Z,9.99
2023-03-21T18:36:15.734Z,10.02
2023-03-21T18:38:44.144Z,10.00
2023-03-21T18:41:15.130Z,9.98
2023-03-21T18:46:32.639Z,9.95
2023-03-21T18:49:27.063Z,9.96
2023-03-21T18:51:49.449Z,9.97
2023-03-21T18:54:18.355Z,9.98
2023-03-21T18:57:33.909Z,10.00
2023-03-21T18:59:40.320Z,10.00
2023-03-21T19:02:09.266Z,10.01
2023-03-21T19:04:39.438Z,10.00
2023-03-21T19:07:08.213Z,10.01
2023-03-21T19:09:58.322Z,10.02
2023-03-21T19:12:26.553Z,10.04
2023-03-21T19:14:54.820Z,10.05
2023-03-21T19:18:26.157Z,10.04
2023-03-21T19:20:14.131Z,10.05
2023-03-21T19:22:42.321Z,10.04
2023-03-21T19:25:11.770Z,10.05
2023-03-21T19:27:41.738Z,10.06
2023-03-21T19:30:15.633Z,10.07
2023-03-21T19:32:44.524Z,10.09
2023-03-21T19:35:14.308Z,10.12
2023-03-21T19:37:42.531Z,10.12
2023-03-21T19:40:12.380Z,10.13
2023-03-21T19:42:43.380Z,10.15
2023-03-21T19:45:12.438Z,10.17
2023-03-21T19:47:40.554Z,10.23
2023-03-21T19:52:58.230Z,10.26
2023-03-21T19:55:27.160Z,10.26
2023-03-21T19:57:56.569Z,10.27
2023-03-21T20:00:24.844Z,10.29
2023-03-21T20:02:53.724Z,10.35
2023-03-21T20:05:22.325Z,10.38
2023-03-21T20:07:50.443Z,10.47
2023-03-21T20:10:21.074Z,10.55
2023-03-21T20:12:49.187Z,10.64
2023-03-21T20:15:21.607Z,10.65
2023-03-21T20:17:50.500Z,10.58
2023-03-21T20:20:19.547Z,10.55
2023-03-21T20:23:10.925Z,10.54
2023-03-21T20:25:55.790Z,10.53
2023-03-21T20:28:27.151Z,10.53
2023-03-21T20:30:59.631Z,10.51
2023-03-21T20:33:28.137Z,10.48
2023-03-21T20:36:37.709Z,10.49
2023-03-21T20:38:48.755Z,10.48
2023-03-21T20:41:17.208Z,10.47
2023-03-21T20:46:37.519Z,10.43
2023-03-21T20:49:15.887Z,10.40
2023-03-21T20:52:44.609Z,10.34
2023-03-21T20:54:35.575Z,10.36
2023-03-21T20:57:05.258Z,10.38
2023-03-21T20:59:33.704Z,10.40
2023-03-21T21:02:03.906Z,10.44
2023-03-21T21:05:15.604Z,10.49
2023-03-21T21:07:23.674Z,10.50
2023-03-21T21:09:51.775Z,10.56
2023-03-21T21:12:20.136Z,10.58
2023-03-21T21:14:49.221Z,10.60
2023-03-21T21:17:40.430Z,10.61
2023-03-21T21:20:17.800Z,10.57
2023-03-21T21:22:58.642Z,10.58
2023-03-21T21:25:30.615Z,10.55
2023-03-21T21:27:59.051Z,10.52
2023-03-21T21:30:27.518Z,10.50
2023-03-21T21:32:59.618Z,10.51
2023-03-21T21:35:28.145Z,10.49
2023-03-21T21:37:57.402Z,10.46
2023-03-21T21:40:26.364Z,10.45
2023-03-21T21:42:54.396Z,10.42
2023-03-21T21:45:22.658Z,10.39
2023-03-21T21:47:51.203Z,10.36
2023-03-21T21:50:22.523Z,10.34
2023-03-21T21:52:54.430Z,10.33
2023-03-21T21:55:23.108Z,10.29
2023-03-21T21:57:53.216Z,10.29
2023-03-21T22:00:23.857Z,10.27
2023-03-21T22:02:52.215Z,10.23
2023-03-21T22:05:22.614Z,10.19
2023-03-21T22:07:53.089Z,10.17
2023-03-21T22:10:23.684Z,10.18
2023-03-21T22:12:52.560Z,10.19
2023-03-21T22:15:24.026Z,10.18
2023-03-21T22:17:52.899Z,10.16
2023-03-21T22:20:24.053Z,10.13
2023-03-21T22:22:52.241Z,10.10
2023-03-21T22:25:20.506Z,10.11
2023-03-21T22:27:48.602Z,10.11
2023-03-21T22:30:18.697Z,10.11
2023-03-21T22:33:02.613Z,10.13
2023-03-21T22:35:53.126Z,10.18
2023-03-21T22:38:39.448Z,10.26
2023-03-21T22:41:08.144Z,10.38
2023-03-21T22:43:37.488Z,10.51
2023-03-21T22:46:07.707Z,10.66
2023-03-21T22:48:36.159Z,10.79
2023-03-21T22:51:05.995Z,10.85
2023-03-21T22:53:34.224Z,10.92
2023-03-21T22:56:02.218Z,10.93
2023-03-21T22:58:30.377Z,10.94
2023-03-21T23:01:02.336Z,10.97
2023-03-21T23:03:30.600Z,10.98
2023-03-21T23:06:01.588Z,10.97
2023-03-21T23:08:31.590Z,10.95
2023-03-21T23:10:59.694Z,10.98
2023-03-21T23:13:28.951Z,10.97
2023-03-21T23:15:57.158Z,10.98
2023-03-21T23:18:25.240Z,10.97
2023-03-21T23:20:53.676Z,10.97
2023-03-21T23:23:21.728Z,10.95
2023-03-21T23:25:51.299Z,10.95
2023-03-21T23:28:19.618Z,10.96
2023-03-21T23:30:48.954Z,10.99
2023-03-21T23:33:17.120Z,11.03
2023-03-21T23:35:46.222Z,11.04
2023-03-21T23:38:14.294Z,11.04
2023-03-21T23:40:42.781Z,11.04
2023-03-21T23:43:12.263Z,11.04
2023-03-21T23:45:40.444Z,11.04
2023-03-21T23:48:08.697Z,11.04
2023-03-21T23:50:36.751Z,11.05
2023-03-21T23:53:05.705Z,11.07
2023-03-21T23:55:35.832Z,11.09
2023-03-21T23:58:03.641Z,11.11
